createdAt,value
2022-10-14T00:01:25.464Z,78.90
2022-10-14T00:03:54.535Z,78.99
2022-10-14T00:06:26.645Z,78.92
2022-10-14T00:08:57.119Z,78.78
2022-10-14T00:11:29.725Z,78.57
2022-10-14T00:14:00.786Z,78.54
2022-10-14T00:16:32.448Z,78.37
2022-10-14T00:19:01.325Z,78.33
2022-10-14T00:21:30.792Z,78.18
2022-10-14T00:24:00.558Z,77.90
2022-10-14T00:26:32.587Z,77.86
2022-10-14T00:29:03.809Z,78.01
2022-10-14T00:31:32.753Z,78.27
2022-10-14T00:34:01.693Z,78.23
2022-10-14T00:36:29.733Z,78.47
2022-10-14T00:38:59.156Z,78.54
2022-10-14T00:41:30.805Z,78.26
2022-10-14T00:44:03.824Z,78.45
2022-10-14T00:46:35.980Z,77.99
2022-10-14T00:49:10.642Z,78.11
2022-10-14T00:51:40.742Z,78.38
2022-10-14T00:54:14.379Z,78.47
2022-10-14T00:56:44.763Z,78.51
2022-10-14T00:59:13.600Z,78.36
2022-10-14T01:01:41.689Z,78.50
2022-10-14T01:04:09.748Z,78.80
2022-10-14T01:06:54.720Z,78.84
2022-10-14T01:09:35.316Z,79.10
2022-10-14T01:12:28.482Z,79.18
2022-10-14T01:15:08.383Z,79.24
2022-10-14T01:17:55.891Z,79.03
2022-10-14T01:20:46.445Z,79.35
2022-10-14T01:23:44.435Z,79.31
2022-10-14T01:26:36.391Z,78.71
2022-10-14T01:29:30.864Z,78.64
2022-10-14T01:32:07.871Z,78.97
2022-10-14T01:34:45.291Z,79.15
2022-10-14T01:37:20.638Z,78.94
2022-10-14T01:39:56.750Z,78.86
2022-10-14T01:42:32.758Z,78.53
2022-10-14T01:45:08.499Z,78.16
2022-10-14T01:47:40.631Z,78.25
2022-10-14T01:50:14.510Z,78.50
2022-10-14T01:52:50.413Z,78.68
2022-10-14T01:55:24.788Z,78.71
2022-10-14T01:57:56.259Z,78.87
2022-10-14T02:00:24.277Z,79.01
2022-10-14T02:02:53.843Z,78.99
2022-10-14T02:05:29.529Z,78.51
2022-10-14T02:08:07.167Z,78.83
2022-10-14T02:11:03.553Z,78.63
2022-10-14T02:13:48.495Z,78.75
2022-10-14T02:16:27.843Z,78.61
2022-10-14T02:19:09.894Z,78.74
2022-10-14T02:21:44.843Z,78.42
2022-10-14T02:24:21.651Z,78.67
2022-10-14T02:26:53.593Z,78.94
2022-10-14T02:29:24.073Z,78.52
2022-10-14T02:31:54.144Z,78.71
2022-10-14T02:34:26.591Z,78.39
2022-10-14T02:36:56.634Z,78.41
2022-10-14T02:39:31.868Z,78.19
2022-10-14T02:42:00.163Z,78.43
2022-10-14T02:44:28.232Z,78.63
2022-10-14T02:46:56.783Z,78.84
2022-10-14T02:49:26.210Z,79.10
2022-10-14T02:51:54.162Z,79.12
2022-10-14T02:54:22.247Z,79.16
2022-10-14T02:56:50.225Z,79.40
2022-10-14T02:59:18.196Z,79.37
2022-10-14T03:01:46.284Z,79.25
2022-10-14T03:04:14.391Z,79.19
2022-10-14T03:06:43.735Z,79.28
2022-10-14T03:09:11.757Z,79.26
2022-10-14T03:11:39.780Z,79.31
2022-10-14T03:14:07.817Z,79.40
2022-10-14T03:16:35.843Z,79.00
2022-10-14T03:19:04.031Z,78.89
2022-10-14T03:21:32.079Z,78.92
2022-10-14T03:24:01.844Z,79.22
2022-10-14T03:26:30.128Z,79.38
2022-10-14T03:28:58.229Z,79.32
2022-10-14T03:31:26.327Z,79.33
2022-10-14T03:33:54.365Z,79.55
2022-10-14T03:36:22.348Z,79.49
2022-10-14T03:38:50.311Z,79.71
2022-10-14T03:41:19.846Z,79.49
2022-10-14T03:43:48.416Z,79.60
2022-10-14T03:46:16.772Z,79.63
2022-10-14T03:48:44.758Z,79.88
2022-10-14T03:51:12.749Z,79.90
2022-10-14T03:53:40.787Z,79.93
2022-10-14T03:56:09.365Z,80.09
2022-10-14T03:58:38.737Z,79.93
2022-10-14T04:01:06.816Z,79.52
2022-10-14T04:03:35.148Z,78.93
2022-10-14T04:06:03.142Z,78.81
2022-10-14T04:08:31.121Z,79.24
2022-10-14T04:10:59.144Z,79.30
2022-10-14T04:13:27.302Z,79.12
2022-10-14T04:15:56.654Z,79.08
2022-10-14T04:18:24.646Z,79.82
2022-10-14T04:20:52.684Z,80.58
2022-10-14T04:23:20.745Z,80.63
2022-10-14T04:25:48.776Z,80.71
2022-10-14T04:28:16.795Z,81.06
2022-10-14T04:30:44.946Z,81.38
2022-10-14T04:33:14.600Z,81.63
2022-10-14T04:35:42.589Z,81.84
2022-10-14T04:38:10.542Z,82.02
2022-10-14T04:40:38.520Z,81.99
2022-10-14T04:43:06.624Z,82.11
2022-10-14T04:45:34.639Z,82.49
2022-10-14T04:48:02.835Z,82.50
2022-10-14T04:50:32.186Z,82.74
2022-10-14T04:53:00.284Z,83.12
2022-10-14T04:55:28.266Z,83.23
2022-10-14T04:57:56.378Z,83.66
2022-10-14T05:00:24.391Z,83.93
2022-10-14T05:02:52.419Z,83.99
2022-10-14T05:05:20.600Z,84.14
2022-10-14T05:07:50.097Z,84.57
2022-10-14T05:10:18.247Z,84.67
2022-10-14T05:12:46.238Z,85.00
2022-10-14T05:15:14.305Z,85.31
2022-10-14T05:17:44.548Z,85.88
2022-10-14T05:20:14.608Z,86.22
2022-10-14T05:22:44.722Z,86.40
2022-10-14T05:25:14.067Z,86.89
2022-10-14T05:27:42.097Z,87.17
2022-10-14T05:30:12.239Z,87.57
2022-10-14T05:32:40.521Z,87.81
2022-10-14T05:35:09.343Z,88.23
2022-10-14T05:37:37.440Z,88.39
2022-10-14T05:40:06.845Z,88.53
2022-10-14T05:42:36.231Z,88.84
2022-10-14T05:45:04.482Z,88.86
2022-10-14T05:47:32.692Z,89.03
2022-10-14T05:50:03.246Z,89.11
2022-10-14T05:52:34.372Z,89.31
2022-10-14T05:55:02.564Z,89.61
2022-10-14T05:57:30.585Z,89.69
2022-10-14T06:00:00.195Z,89.80
2022-10-14T06:02:28.654Z,90.04
2022-10-14T06:04:56.541Z,90.31
2022-10-14T06:07:24.493Z,90.49
2022-10-14T06:09:52.508Z,90.68
2022-10-14T06:12:20.699Z,90.69
2022-10-14T06:14:48.887Z,90.92
2022-10-14T06:17:18.263Z,91.04
2022-10-14T06:19:46.208Z,91.08
2022-10-14T06:22:14.293Z,91.39
2022-10-14T06:24:42.274Z,91.42
2022-10-14T06:27:10.223Z,91.42
2022-10-14T06:29:38.647Z,90.97
2022-10-14T06:32:07.732Z,89.91
2022-10-14T06:34:37.168Z,88.78
2022-10-14T06:37:05.200Z,88.31
2022-10-14T06:39:33.177Z,85.89
2022-10-14T06:42:01.175Z,84.07
2022-10-14T06:44:29.115Z,81.79
2022-10-14T06:46:57.083Z,81.66
2022-10-14T06:49:25.074Z,81.45
2022-10-14T06:51:54.391Z,81.61
2022-10-14T06:54:22.618Z,81.52
2022-10-14T06:56:50.684Z,81.16
2022-10-14T06:59:18.899Z,79.93
2022-10-14T07:01:46.941Z,78.73
2022-10-14T07:04:15.012Z,78.87
2022-10-14T07:06:43.035Z,78.80
2022-10-14T07:09:12.590Z,77.64
2022-10-14T07:11:42.717Z,75.71
2022-10-14T07:14:11.129Z,74.66
2022-10-14T07:16:39.087Z,74.92
2022-10-14T07:19:07.081Z,74.85
2022-10-14T07:21:35.083Z,74.36
2022-10-14T07:24:03.097Z,73.99
2022-10-14T07:26:32.990Z,72.04
2022-10-14T07:29:01.150Z,72.28
2022-10-14T07:31:29.936Z,72.59
2022-10-14T07:33:58.262Z,72.43
2022-10-14T07:36:26.388Z,71.77
2022-10-14T07:38:54.433Z,71.42
2022-10-14T07:41:25.941Z,71.31
2022-10-14T07:44:01.891Z,71.53
2022-10-14T07:46:32.255Z,70.90
2022-10-14T07:49:03.793Z,70.64
2022-10-14T07:51:32.850Z,70.42
2022-10-14T07:54:04.465Z,67.87
2022-10-14T07:56:32.563Z,67.23
2022-10-14T07:59:01.831Z,67.67
2022-10-14T08:01:29.799Z,68.05
2022-10-14T08:03:57.965Z,66.36
2022-10-14T08:06:26.421Z,67.55
2022-10-14T08:08:54.786Z,67.97
2022-10-14T08:11:26.148Z,68.75
2022-10-14T08:13:55.045Z,69.31
2022-10-14T08:16:26.859Z,69.98
2022-10-14T08:18:58.142Z,69.72
2022-10-14T08:21:28.228Z,69.64
2022-10-14T08:23:56.221Z,70.17
2022-10-14T08:26:29.458Z,70.52
2022-10-14T08:28:58.598Z,70.83
2022-10-14T08:31:28.085Z,70.62
2022-10-14T08:33:56.029Z,70.32
2022-10-14T08:36:24.327Z,70.46
2022-10-14T08:38:54.901Z,70.19
2022-10-14T08:41:57.055Z,70.28
2022-10-14T08:44:29.811Z,69.64
2022-10-14T08:47:02.884Z,68.73
2022-10-14T08:49:38.553Z,66.56
2022-10-14T08:52:14.291Z,65.77
2022-10-14T08:54:48.172Z,65.89
2022-10-14T08:57:21.625Z,65.70
2022-10-14T08:59:50.055Z,65.26
2022-10-14T09:02:36.518Z,64.34
2022-10-14T09:05:06.600Z,64.48
2022-10-14T09:07:38.050Z,64.64
2022-10-14T09:10:16.645Z,63.64
2022-10-14T09:12:45.683Z,62.66
2022-10-14T09:15:23.458Z,62.29
2022-10-14T09:18:06.355Z,61.68
2022-10-14T09:20:34.507Z,62.09
2022-10-14T09:23:17.161Z,61.18
2022-10-14T09:25:56.814Z,60.95
2022-10-14T09:28:36.510Z,61.10
2022-10-14T09:31:06.450Z,60.54
2022-10-14T09:33:42.154Z,60.38
2022-10-14T09:36:18.034Z,60.82
2022-10-14T09:38:48.120Z,61.49
2022-10-14T09:41:17.625Z,61.25
2022-10-14T09:44:22.485Z,61.25
2022-10-14T09:46:55.977Z,61.79
2022-10-14T09:49:35.734Z,61.05
2022-10-14T09:52:03.699Z,61.50
2022-10-14T09:54:33.912Z,60.89
2022-10-14T09:57:08.256Z,58.82
2022-10-14T09:59:53.801Z,57.17
2022-10-14T10:02:25.927Z,57.22
2022-10-14T10:04:57.243Z,56.95
2022-10-14T10:07:31.200Z,56.46
2022-10-14T10:10:01.997Z,56.93
2022-10-14T10:12:33.079Z,56.06
2022-10-14T10:15:05.218Z,56.77
2022-10-14T10:17:35.866Z,56.77
2022-10-14T10:20:28.101Z,56.57
2022-10-14T10:22:57.176Z,55.75
2022-10-14T10:25:28.231Z,55.48
2022-10-14T10:28:00.434Z,55.02
2022-10-14T10:30:33.003Z,55.82
2022-10-14T10:33:25.454Z,54.75
2022-10-14T10:39:00.741Z,54.82
2022-10-14T10:41:53.294Z,55.48
2022-10-14T10:45:00.185Z,55.21
2022-10-14T10:47:45.509Z,54.92
2022-10-14T10:50:33.295Z,54.83
2022-10-14T10:53:50.562Z,55.04
2022-10-14T10:56:34.193Z,53.84
2022-10-14T10:59:35.212Z,53.51
2022-10-14T11:02:55.840Z,52.39
2022-10-14T11:05:50.560Z,52.31
2022-10-14T11:09:11.527Z,52.55
2022-10-14T11:12:06.411Z,53.07
2022-10-14T11:15:02.900Z,52.74
2022-10-14T11:17:43.335Z,53.08
2022-10-14T11:20:29.911Z,53.06
2022-10-14T11:23:26.076Z,53.75
2022-10-14T11:26:03.954Z,53.36
2022-10-14T11:28:46.915Z,53.60
2022-10-14T11:31:34.141Z,53.72
2022-10-14T11:34:35.301Z,53.84
2022-10-14T11:37:15.601Z,53.45
2022-10-14T11:39:50.303Z,54.01
2022-10-14T11:42:35.891Z,53.48
2022-10-14T11:45:30.340Z,52.88
2022-10-14T11:48:18.561Z,52.63
2022-10-14T11:50:55.209Z,53.18
2022-10-14T11:56:29.312Z,52.18
2022-10-14T11:59:26.892Z,52.46
2022-10-14T12:02:03.554Z,53.39
2022-10-14T12:04:37.133Z,54.27
2022-10-14T12:07:18.455Z,52.53
2022-10-14T12:09:55.914Z,53.16
2022-10-14T12:12:30.185Z,53.20
2022-10-14T12:15:05.716Z,52.86
2022-10-14T12:17:41.295Z,52.89
2022-10-14T12:20:26.680Z,53.01
2022-10-14T12:22:57.341Z,52.93
2022-10-14T12:25:31.572Z,51.43
2022-10-14T12:28:00.471Z,51.62
2022-10-14T12:30:42.096Z,50.59
2022-10-14T12:33:12.742Z,50.62
2022-10-14T12:35:59.021Z,51.57
2022-10-14T12:38:29.787Z,51.07
2022-10-14T12:41:39.016Z,50.66
2022-10-14T12:44:18.598Z,51.12
2022-10-14T12:46:50.836Z,51.02
2022-10-14T12:49:28.043Z,51.50
2022-10-14T12:51:59.026Z,52.42
2022-10-14T12:54:28.836Z,53.27
2022-10-14T12:57:01.353Z,53.82
2022-10-14T12:59:33.621Z,53.73
2022-10-14T13:02:15.043Z,54.53
2022-10-14T13:04:49.964Z,54.90
2022-10-14T13:07:46.866Z,54.36
2022-10-14T13:10:47.034Z,55.25
2022-10-14T13:14:00.365Z,54.82
2022-10-14T13:16:58.687Z,55.00
2022-10-14T13:19:46.775Z,53.63
2022-10-14T13:22:40.499Z,53.26
2022-10-14T13:25:16.812Z,52.27
2022-10-14T13:28:04.538Z,51.71
2022-10-14T13:30:47.175Z,51.69
2022-10-14T13:33:23.724Z,51.19
2022-10-14T13:36:08.676Z,52.27
2022-10-14T13:38:37.793Z,53.13
2022-10-14T13:41:07.575Z,53.15
2022-10-14T13:43:42.284Z,52.77
2022-10-14T13:46:20.242Z,52.30
2022-10-14T13:48:52.571Z,53.45
2022-10-14T13:51:45.154Z,54.01
2022-10-14T13:54:20.954Z,54.56
2022-10-14T13:57:28.944Z,53.34
2022-10-14T14:02:40.943Z,52.80
2022-10-14T14:05:18.466Z,52.87
2022-10-14T14:08:22.224Z,53.79
2022-10-14T14:10:57.470Z,54.13
2022-10-14T14:13:31.100Z,54.88
2022-10-14T14:16:09.879Z,55.72
2022-10-14T14:18:55.636Z,56.49
2022-10-14T14:21:30.177Z,57.26
2022-10-14T14:24:02.166Z,56.55
2022-10-14T14:26:36.811Z,57.03
2022-10-14T14:29:07.915Z,57.31
2022-10-14T14:32:04.999Z,57.67
2022-10-14T14:34:25.397Z,57.75
2022-10-14T14:37:01.339Z,57.95
2022-10-14T14:39:35.240Z,57.41
2022-10-14T14:42:03.482Z,58.09
2022-10-14T14:44:34.830Z,58.18
2022-10-14T14:47:04.919Z,58.66
2022-10-14T14:49:38.034Z,58.82
2022-10-14T14:52:07.500Z,58.99
2022-10-14T14:54:46.618Z,59.53
2022-10-14T14:57:19.599Z,60.06
2022-10-14T15:00:00.564Z,60.30
2022-10-14T15:02:32.742Z,60.89
2022-10-14T15:05:03.581Z,61.16
2022-10-14T15:07:32.029Z,61.50
2022-10-14T15:10:06.378Z,61.60
2022-10-14T15:12:39.837Z,61.82
2022-10-14T15:15:26.665Z,62.21
2022-10-14T15:18:15.126Z,62.51
2022-10-14T15:20:44.212Z,62.72
2022-10-14T15:23:41.895Z,63.41
2022-10-14T15:26:33.369Z,63.42
2022-10-14T15:29:17.062Z,63.35
2022-10-14T15:31:47.978Z,63.50
2022-10-14T15:34:21.623Z,63.54
2022-10-14T15:36:54.067Z,63.38
2022-10-14T15:39:23.304Z,62.60
2022-10-14T15:41:52.584Z,62.87
2022-10-14T15:44:20.525Z,62.99
2022-10-14T15:47:06.040Z,63.17
2022-10-14T15:49:38.972Z,63.41
2022-10-14T15:52:06.985Z,63.66
2022-10-14T15:54:34.945Z,63.81
2022-10-14T15:57:05.676Z,64.03
2022-10-14T15:59:33.662Z,64.64
2022-10-14T16:02:03.902Z,64.73
2022-10-14T16:04:33.509Z,65.13
2022-10-14T16:07:01.496Z,65.37
2022-10-14T16:09:29.496Z,65.63
2022-10-14T16:12:00.488Z,65.63
2022-10-14T16:14:29.948Z,65.88
2022-10-14T16:16:57.868Z,65.95
2022-10-14T16:19:25.813Z,66.14
2022-10-14T16:21:53.763Z,66.45
2022-10-14T16:24:25.462Z,66.55
2022-10-14T16:26:54.641Z,66.43
2022-10-14T16:29:22.939Z,66.36
2022-10-14T16:31:52.741Z,66.47
2022-10-14T16:34:23.719Z,66.60
2022-10-14T16:36:53.547Z,66.59
2022-10-14T16:39:21.867Z,66.94
2022-10-14T16:41:50.208Z,67.18
2022-10-14T16:44:27.168Z,67.23
2022-10-14T16:47:17.468Z,67.66
2022-10-14T16:49:49.059Z,67.90
2022-10-14T16:52:17.382Z,67.80
2022-10-14T16:54:45.642Z,67.85
2022-10-14T16:57:14.401Z,67.91
2022-10-14T16:59:42.510Z,68.15
2022-10-14T17:02:15.883Z,68.15
2022-10-14T17:04:46.325Z,68.10
2022-10-14T17:07:16.573Z,68.41
2022-10-14T17:09:44.756Z,68.36
2022-10-14T17:12:14.090Z,68.25
2022-10-14T17:14:42.834Z,67.97
2022-10-14T17:17:13.019Z,67.82
2022-10-14T17:19:41.264Z,67.59
2022-10-14T17:22:09.208Z,67.80
2022-10-14T17:24:37.161Z,67.84
2022-10-14T17:27:05.393Z,67.59
2022-10-14T17:29:34.033Z,67.59
2022-10-14T17:32:02.001Z,67.66
2022-10-14T17:34:31.743Z,67.51
2022-10-14T17:37:00.558Z,67.40
2022-10-14T17:39:29.904Z,66.98
2022-10-14T17:41:58.524Z,67.08
2022-10-14T17:44:28.574Z,66.89
2022-10-14T17:46:56.868Z,66.77
2022-10-14T17:49:24.825Z,66.88
2022-10-14T17:51:54.183Z,67.09
2022-10-14T17:54:22.288Z,67.09
2022-10-14T17:56:50.234Z,67.28
2022-10-14T17:59:18.130Z,67.14
2022-10-14T18:02:03.224Z,67.35
2022-10-14T18:04:33.125Z,67.43
2022-10-14T18:07:02.545Z,67.17
2022-10-14T18:09:30.511Z,67.46
2022-10-14T18:12:13.766Z,67.22
2022-10-14T18:14:42.636Z,67.05
2022-10-14T18:17:12.458Z,66.68
2022-10-14T18:19:41.031Z,66.21
2022-10-14T18:22:12.023Z,66.35
2022-10-14T18:24:40.258Z,66.08
2022-10-14T18:27:08.307Z,66.09
2022-10-14T18:29:36.403Z,66.08
2022-10-14T18:32:04.683Z,65.86
2022-10-14T18:34:33.021Z,65.91
2022-10-14T18:37:01.062Z,65.71
2022-10-14T18:39:30.428Z,65.58
2022-10-14T18:41:58.759Z,65.68
2022-10-14T18:44:26.807Z,65.88
2022-10-14T18:46:54.933Z,65.37
2022-10-14T18:49:22.887Z,64.55
2022-10-14T18:51:51.786Z,64.08
2022-10-14T18:54:23.662Z,65.08
2022-10-14T18:56:54.740Z,65.34
2022-10-14T18:59:24.374Z,65.20
2022-10-14T19:01:53.429Z,65.55
2022-10-14T19:04:25.069Z,65.64
2022-10-14T19:06:53.351Z,65.39
2022-10-14T19:09:28.832Z,65.81
2022-10-14T19:11:59.503Z,65.86
2022-10-14T19:14:28.580Z,66.39
2022-10-14T19:16:56.645Z,66.49
2022-10-14T19:19:24.617Z,66.48
2022-10-14T19:21:54.190Z,66.56
2022-10-14T19:24:22.787Z,65.90
2022-10-14T19:26:50.888Z,65.69
2022-10-14T19:29:20.398Z,65.80
2022-10-14T19:31:54.316Z,66.20
2022-10-14T19:34:26.744Z,66.60
2022-10-14T19:36:55.289Z,64.94
2022-10-14T19:39:23.303Z,65.77
2022-10-14T19:41:51.299Z,66.20
2022-10-14T19:44:20.761Z,65.84
2022-10-14T19:46:48.779Z,66.23
2022-10-14T19:49:17.556Z,66.60
2022-10-14T19:51:45.875Z,66.88
2022-10-14T19:54:14.614Z,66.84
2022-10-14T19:56:43.900Z,67.38
2022-10-14T19:59:13.449Z,67.60
2022-10-14T20:01:43.060Z,67.51
2022-10-14T20:04:11.121Z,66.76
2022-10-14T20:06:40.177Z,66.98
2022-10-14T20:09:11.738Z,67.04
2022-10-14T20:11:39.862Z,66.93
2022-10-14T20:14:08.037Z,67.63
2022-10-14T20:16:36.108Z,67.96
2022-10-14T20:19:05.887Z,67.80
2022-10-14T20:21:33.906Z,67.40
2022-10-14T20:24:01.902Z,67.42
2022-10-14T20:26:30.657Z,67.68
2022-10-14T20:28:59.213Z,67.83
2022-10-14T20:31:27.361Z,67.96
2022-10-14T20:33:57.500Z,68.14
2022-10-14T20:36:26.951Z,67.92
2022-10-14T20:38:54.990Z,67.92
2022-10-14T20:41:25.808Z,67.73
2022-10-14T20:43:56.060Z,68.33
2022-10-14T20:46:25.284Z,68.78
2022-10-14T20:48:57.544Z,68.86
2022-10-14T20:51:27.438Z,69.22
2022-10-14T20:54:01.770Z,69.47
2022-10-14T20:56:33.911Z,69.80
2022-10-14T20:59:04.389Z,69.38
2022-10-14T21:01:33.616Z,68.10
2022-10-14T21:04:03.619Z,68.03
2022-10-14T21:06:33.005Z,68.50
2022-10-14T21:09:02.095Z,69.06
2022-10-14T21:11:30.193Z,69.78
2022-10-14T21:14:00.796Z,69.99
2022-10-14T21:16:32.589Z,69.78
2022-10-14T21:19:04.865Z,70.74
2022-10-14T21:21:37.401Z,71.01
2022-10-14T21:24:06.355Z,71.43
2022-10-14T21:26:34.765Z,71.05
2022-10-14T21:29:03.764Z,72.01
2022-10-14T21:31:32.118Z,73.08
2022-10-14T21:34:06.048Z,74.26
2022-10-14T21:36:37.456Z,75.31
2022-10-14T21:39:08.851Z,76.57
2022-10-14T21:41:38.388Z,77.81
2022-10-14T21:44:07.239Z,78.54
2022-10-14T21:46:36.451Z,79.29
2022-10-14T21:49:04.778Z,79.93
2022-10-14T21:51:33.411Z,79.98
2022-10-14T21:54:03.023Z,80.92
2022-10-14T21:56:31.509Z,81.38
2022-10-14T21:58:59.903Z,82.03
2022-10-14T22:01:30.608Z,82.25
2022-10-14T22:04:01.117Z,82.20
2022-10-14T22:06:29.557Z,82.51
2022-10-14T22:09:00.129Z,82.68
2022-10-14T22:11:33.192Z,81.83
2022-10-14T22:14:04.693Z,82.09
2022-10-14T22:16:36.194Z,81.07
2022-10-14T22:19:07.408Z,81.35
2022-10-14T22:21:38.236Z,82.44
2022-10-14T22:26:42.905Z,82.39
2022-10-14T22:29:14.982Z,82.58
2022-10-14T22:31:43.744Z,81.68
2022-10-14T22:34:17.766Z,82.23
2022-10-14T22:36:46.698Z,81.85
2022-10-14T22:39:17.740Z,81.47
2022-10-14T22:41:47.125Z,81.26
2022-10-14T22:44:15.093Z,81.75
2022-10-14T22:46:44.631Z,82.11
2022-10-14T22:49:12.652Z,82.75
2022-10-14T22:51:41.685Z,83.36
2022-10-14T22:54:10.222Z,83.25
2022-10-14T22:56:39.418Z,83.61
2022-10-14T22:59:11.783Z,84.20
2022-10-14T23:01:40.610Z,84.69
2022-10-14T23:04:11.769Z,84.89
2022-10-14T23:06:43.654Z,84.47
2022-10-14T23:09:11.803Z,84.83
2022-10-14T23:11:39.876Z,85.14
2022-10-14T23:14:09.476Z,85.17
2022-10-14T23:16:39.526Z,85.41
2022-10-14T23:19:07.547Z,84.65
2022-10-14T23:21:38.370Z,84.58
2022-10-14T23:24:11.026Z,84.99
2022-10-14T23:26:39.553Z,85.08
2022-10-14T23:29:11.741Z,85.45
2022-10-14T23:31:42.057Z,85.01
2022-10-14T23:34:14.630Z,84.83
2022-10-14T23:36:43.457Z,85.30
2022-10-14T23:39:11.852Z,84.90
2022-10-14T23:41:40.350Z,83.47
2022-10-14T23:44:11.612Z,84.32
2022-10-14T23:46:39.675Z,84.27
2022-10-14T23:49:25.031Z,85.06
2022-10-14T23:51:55.190Z,84.21
2022-10-14T23:54:23.297Z,84.36
2022-10-14T23:56:51.654Z,83.97
2022-10-14T23:59:20.970Z,84.10
